sensor_id;sensor_type;location;lat;lon;timestamp;temperature;humidity
45008;DHT22;30743;52.008;5.644;2022-08-19T00:00:12;24.40;99.90
45008;DHT22;30743;52.008;5.644;2022-08-19T00:02:39;24.20;99.90
45008;DHT22;30743;52.008;5.644;2022-08-19T00:05:05;24.20;99.90
45008;DHT22;30743;52.008;5.644;2022-08-19T00:07:31;24.20;99.90
45008;DHT22;30743;52.008;5.644;2022-08-19T00:09:57;24.20;99.90
45008;DHT22;30743;52.008;5.644;2022-08-19T00:12:22;24.20;99.90
45008;DHT22;30743;52.008;5.644;2022-08-19T00:14:48;24.10;99.90
45008;DHT22;30743;52.008;5.644;2022-08-19T00:17:13;24.10;99.90
45008;DHT22;30743;52.008;5.644;2022-08-19T00:19:39;24.10;99.90
45008;DHT22;30743;52.008;5.644;2022-08-19T00:22:05;24.10;99.90
45008;DHT22;30743;52.008;5.644;2022-08-19T00:24:31;24.10;99.90
45008;DHT22;30743;52.008;5.644;2022-08-19T00:26:57;24.00;99.90
45008;DHT22;30743;52.008;5.644;2022-08-19T00:29:24;24.00;99.90
45008;DHT22;30743;52.008;5.644;2022-08-19T00:31:52;24.00;99.90
45008;DHT22;30743;52.008;5.644;2022-08-19T00:34:20;23.90;99.90
45008;DHT22;30743;52.008;5.644;2022-08-19T00:36:47;23.80;99.90
45008;DHT22;30743;52.008;5.644;2022-08-19T00:39:14;23.80;99.90
45008;DHT22;30743;52.008;5.644;2022-08-19T00:41:41;23.80;99.90
45008;DHT22;30743;52.008;5.644;2022-08-19T00:44:18;23.80;99.90
45008;DHT22;30743;52.008;5.644;2022-08-19T00:46:46;23.80;99.90
45008;DHT22;30743;52.008;5.644;2022-08-19T00:49:16;23.80;99.90
45008;DHT22;30743;52.008;5.644;2022-08-19T00:51:48;23.80;99.90
45008;DHT22;30743;52.008;5.644;2022-08-19T00:54:15;23.80;99.90
45008;DHT22;30743;52.008;5.644;2022-08-19T00:56:41;23.80;99.90
45008;DHT22;30743;52.008;5.644;2022-08-19T00:59:07;23.70;99.90
45008;DHT22;30743;52.008;5.644;2022-08-19T01:01:39;23.70;99.90
45008;DHT22;30743;52.008;5.644;2022-08-19T01:04:04;23.70;99.90
45008;DHT22;30743;52.008;5.644;2022-08-19T01:06:31;23.70;99.90
45008;DHT22;30743;52.008;5.644;2022-08-19T01:08:57;23.70;99.90
45008;DHT22;30743;52.008;5.644;2022-08-19T01:11:23;23.60;99.90
45008;DHT22;30743;52.008;5.644;2022-08-19T01:13:50;23.60;99.90
45008;DHT22;30743;52.008;5.644;2022-08-19T01:16:19;23.60;99.90
45008;DHT22;30743;52.008;5.644;2022-08-19T01:18:45;23.60;99.90
45008;DHT22;30743;52.008;5.644;2022-08-19T01:21:22;23.60;99.90
45008;DHT22;30743;52.008;5.644;2022-08-19T01:23:50;23.50;99.90
45008;DHT22;30743;52.008;5.644;2022-08-19T01:26:19;23.50;99.90
45008;DHT22;30743;52.008;5.644;2022-08-19T01:28:48;23.50;99.90
45008;DHT22;30743;52.008;5.644;2022-08-19T01:31:17;23.40;99.90
45008;DHT22;30743;52.008;5.644;2022-08-19T01:33:44;23.30;99.90
45008;DHT22;30743;52.008;5.644;2022-08-19T01:36:16;23.40;99.90
45008;DHT22;30743;52.008;5.644;2022-08-19T01:38:47;23.30;99.90
45008;DHT22;30743;52.008;5.644;2022-08-19T01:41:14;23.30;99.90
45008;DHT22;30743;52.008;5.644;2022-08-19T01:43:39;23.30;99.90
45008;DHT22;30743;52.008;5.644;2022-08-19T01:46:05;23.30;99.90
45008;DHT22;30743;52.008;5.644;2022-08-19T01:48:36;23.30;99.90
45008;DHT22;30743;52.008;5.644;2022-08-19T01:51:02;23.30;99.90
45008;DHT22;30743;52.008;5.644;2022-08-19T01:53:28;23.30;99.90
45008;DHT22;30743;52.008;5.644;2022-08-19T01:55:53;23.20;99.90
45008;DHT22;30743;52.008;5.644;2022-08-19T01:58:22;23.20;99.90
45008;DHT22;30743;52.008;5.644;2022-08-19T02:00:49;23.20;99.90
45008;DHT22;30743;52.008;5.644;2022-08-19T02:03:15;23.20;99.90
45008;DHT22;30743;52.008;5.644;2022-08-19T02:05:42;23.00;99.90
45008;DHT22;30743;52.008;5.644;2022-08-19T02:08:08;23.00;99.90
45008;DHT22;30743;52.008;5.644;2022-08-19T02:10:37;23.10;99.90
45008;DHT22;30743;52.008;5.644;2022-08-19T02:13:03;23.10;99.90
45008;DHT22;30743;52.008;5.644;2022-08-19T02:15:28;23.10;99.90
45008;DHT22;30743;52.008;5.644;2022-08-19T02:17:54;23.10;99.90
45008;DHT22;30743;52.008;5.644;2022-08-19T02:20:19;23.10;99.90
45008;DHT22;30743;52.008;5.644;2022-08-19T02:22:45;23.10;99.90
45008;DHT22;30743;52.008;5.644;2022-08-19T02:25:12;23.00;99.90
45008;DHT22;30743;52.008;5.644;2022-08-19T02:27:40;23.00;99.90
45008;DHT22;30743;52.008;5.644;2022-08-19T02:30:09;23.00;99.90
45008;DHT22;30743;52.008;5.644;2022-08-19T02:32:35;23.00;99.90
45008;DHT22;30743;52.008;5.644;2022-08-19T02:35:01;23.00;99.90
45008;DHT22;30743;52.008;5.644;2022-08-19T02:37:27;22.90;99.90
45008;DHT22;30743;52.008;5.644;2022-08-19T02:40:11;22.90;99.90
45008;DHT22;30743;52.008;5.644;2022-08-19T02:42:37;22.90;99.90
45008;DHT22;30743;52.008;5.644;2022-08-19T02:45:03;22.90;99.90
45008;DHT22;30743;52.008;5.644;2022-08-19T02:47:30;22.90;99.90
45008;DHT22;30743;52.008;5.644;2022-08-19T02:49:56;22.90;99.90
45008;DHT22;30743;52.008;5.644;2022-08-19T02:52:21;22.80;99.90
45008;DHT22;30743;52.008;5.644;2022-08-19T02:54:48;22.90;99.90
45008;DHT22;30743;52.008;5.644;2022-08-19T02:57:14;22.80;99.90
45008;DHT22;30743;52.008;5.644;2022-08-19T02:59:39;22.80;99.90
45008;DHT22;30743;52.008;5.644;2022-08-19T03:02:05;22.80;99.90
45008;DHT22;30743;52.008;5.644;2022-08-19T03:04:30;22.70;99.90
45008;DHT22;30743;52.008;5.644;2022-08-19T03:06:56;22.70;99.90
45008;DHT22;30743;52.008;5.644;2022-08-19T03:09:22;22.70;99.90
45008;DHT22;30743;52.008;5.644;2022-08-19T03:11:47;22.70;99.90
45008;DHT22;30743;52.008;5.644;2022-08-19T03:14:13;22.70;99.90
45008;DHT22;30743;52.008;5.644;2022-08-19T03:16:48;22.60;99.90
45008;DHT22;30743;52.008;5.644;2022-08-19T03:19:16;22.60;99.90
45008;DHT22;30743;52.008;5.644;2022-08-19T03:21:43;22.60;99.90
45008;DHT22;30743;52.008;5.644;2022-08-19T03:24:12;22.60;99.90
45008;DHT22;30743;52.008;5.644;2022-08-19T03:26:40;22.50;99.90
45008;DHT22;30743;52.008;5.644;2022-08-19T03:29:06;22.50;99.90
45008;DHT22;30743;52.008;5.644;2022-08-19T03:31:32;22.60;99.90
45008;DHT22;30743;52.008;5.644;2022-08-19T03:33:58;22.50;99.90
45008;DHT22;30743;52.008;5.644;2022-08-19T03:36:25;22.50;99.90
45008;DHT22;30743;52.008;5.644;2022-08-19T03:38:54;22.50;99.90
45008;DHT22;30743;52.008;5.644;2022-08-19T03:41:26;22.40;99.90
45008;DHT22;30743;52.008;5.644;2022-08-19T03:43:53;22.40;99.90
45008;DHT22;30743;52.008;5.644;2022-08-19T03:46:21;22.40;99.90
45008;DHT22;30743;52.008;5.644;2022-08-19T03:48:50;22.30;99.90
45008;DHT22;30743;52.008;5.644;2022-08-19T03:51:30;22.20;99.90
45008;DHT22;30743;52.008;5.644;2022-08-19T03:53:58;22.20;99.90
45008;DHT22;30743;52.008;5.644;2022-08-19T03:56:24;22.20;99.90
45008;DHT22;30743;52.008;5.644;2022-08-19T03:58:51;22.10;99.90
45008;DHT22;30743;52.008;5.644;2022-08-19T04:01:21;22.20;99.90
45008;DHT22;30743;52.008;5.644;2022-08-19T04:03:47;22.20;99.90
45008;DHT22;30743;52.008;5.644;2022-08-19T04:06:22;22.20;99.90
45008;DHT22;30743;52.008;5.644;2022-08-19T04:08:50;22.20;99.90
45008;DHT22;30743;52.008;5.644;2022-08-19T04:11:22;22.20;99.90
45008;DHT22;30743;52.008;5.644;2022-08-19T04:13:48;22.20;99.90
45008;DHT22;30743;52.008;5.644;2022-08-19T04:16:14;22.20;99.90
45008;DHT22;30743;52.008;5.644;2022-08-19T04:18:40;22.20;99.90
45008;DHT22;30743;52.008;5.644;2022-08-19T04:21:06;22.20;99.90
45008;DHT22;30743;52.008;5.644;2022-08-19T04:23:33;22.20;99.90
45008;DHT22;30743;52.008;5.644;2022-08-19T04:25:59;22.20;99.90
45008;DHT22;30743;52.008;5.644;2022-08-19T04:28:25;22.10;99.90
45008;DHT22;30743;52.008;5.644;2022-08-19T04:30:53;22.10;99.90
45008;DHT22;30743;52.008;5.644;2022-08-19T04:33:21;22.00;99.90
45008;DHT22;30743;52.008;5.644;2022-08-19T04:35:49;22.10;99.90
45008;DHT22;30743;52.008;5.644;2022-08-19T04:38:18;22.10;99.90
45008;DHT22;30743;52.008;5.644;2022-08-19T04:40:48;22.10;99.90
45008;DHT22;30743;52.008;5.644;2022-08-19T04:43:34;22.10;99.90
45008;DHT22;30743;52.008;5.644;2022-08-19T04:46:11;22.10;99.90
45008;DHT22;30743;52.008;5.644;2022-08-19T04:48:38;22.10;99.90
45008;DHT22;30743;52.008;5.644;2022-08-19T04:51:08;22.10;99.90
45008;DHT22;30743;52.008;5.644;2022-08-19T04:53:36;22.10;99.90
45008;DHT22;30743;52.008;5.644;2022-08-19T04:56:08;22.20;99.90
45008;DHT22;30743;52.008;5.644;2022-08-19T04:58:35;22.10;99.90
45008;DHT22;30743;52.008;5.644;2022-08-19T05:01:02;22.10;99.90
45008;DHT22;30743;52.008;5.644;2022-08-19T05:03:28;22.10;99.90
45008;DHT22;30743;52.008;5.644;2022-08-19T05:06:04;22.10;99.90
45008;DHT22;30743;52.008;5.644;2022-08-19T05:08:29;22.10;99.90
45008;DHT22;30743;52.008;5.644;2022-08-19T05:10:56;22.10;99.90
45008;DHT22;30743;52.008;5.644;2022-08-19T05:13:22;22.10;99.90
45008;DHT22;30743;52.008;5.644;2022-08-19T05:15:57;22.10;99.90
45008;DHT22;30743;52.008;5.644;2022-08-19T05:18:23;22.10;99.90
45008;DHT22;30743;52.008;5.644;2022-08-19T05:21:08;22.10;99.90
45008;DHT22;30743;52.008;5.644;2022-08-19T05:23:53;22.10;99.90
45008;DHT22;30743;52.008;5.644;2022-08-19T05:26:18;22.10;99.90
45008;DHT22;30743;52.008;5.644;2022-08-19T05:28:44;22.00;99.90
45008;DHT22;30743;52.008;5.644;2022-08-19T05:31:09;22.10;99.90
45008;DHT22;30743;52.008;5.644;2022-08-19T05:33:35;22.20;99.90
45008;DHT22;30743;52.008;5.644;2022-08-19T05:36:02;22.30;99.90
45008;DHT22;30743;52.008;5.644;2022-08-19T05:38:28;22.40;99.90
45008;DHT22;30743;52.008;5.644;2022-08-19T05:40:53;22.50;99.90
45008;DHT22;30743;52.008;5.644;2022-08-19T05:43:19;22.60;99.90
45008;DHT22;30743;52.008;5.644;2022-08-19T05:45:45;22.60;99.90
45008;DHT22;30743;52.008;5.644;2022-08-19T05:48:11;22.70;99.90
45008;DHT22;30743;52.008;5.644;2022-08-19T05:50:39;22.80;99.90
45008;DHT22;30743;52.008;5.644;2022-08-19T05:53:05;23.30;99.90
45008;DHT22;30743;52.008;5.644;2022-08-19T05:55:31;23.10;99.90
45008;DHT22;30743;52.008;5.644;2022-08-19T05:57:57;23.20;99.90
45008;DHT22;30743;52.008;5.644;2022-08-19T06:00:26;23.30;99.90
45008;DHT22;30743;52.008;5.644;2022-08-19T06:02:52;23.30;99.90
45008;DHT22;30743;52.008;5.644;2022-08-19T06:05:19;23.30;99.90
45008;DHT22;30743;52.008;5.644;2022-08-19T06:07:45;23.30;99.90
45008;DHT22;30743;52.008;5.644;2022-08-19T06:10:11;23.40;99.90
45008;DHT22;30743;52.008;5.644;2022-08-19T06:12:37;23.50;99.90
45008;DHT22;30743;52.008;5.644;2022-08-19T06:15:09;23.20;99.90
45008;DHT22;30743;52.008;5.644;2022-08-19T06:17:34;23.00;99.90
45008;DHT22;30743;52.008;5.644;2022-08-19T06:20:01;23.00;99.90
45008;DHT22;30743;52.008;5.644;2022-08-19T06:22:28;23.10;99.90
45008;DHT22;30743;52.008;5.644;2022-08-19T06:24:55;23.30;99.90
45008;DHT22;30743;52.008;5.644;2022-08-19T06:27:21;23.50;99.90
45008;DHT22;30743;52.008;5.644;2022-08-19T06:29:47;23.70;99.90
45008;DHT22;30743;52.008;5.644;2022-08-19T06:32:15;23.80;99.90
45008;DHT22;30743;52.008;5.644;2022-08-19T06:34:41;23.70;99.90
45008;DHT22;30743;52.008;5.644;2022-08-19T06:37:07;23.80;99.90
45008;DHT22;30743;52.008;5.644;2022-08-19T06:39:36;23.70;99.90
45008;DHT22;30743;52.008;5.644;2022-08-19T06:42:04;23.60;99.90
45008;DHT22;30743;52.008;5.644;2022-08-19T06:44:34;23.70;99.90
45008;DHT22;30743;52.008;5.644;2022-08-19T06:47:03;23.90;99.90
45008;DHT22;30743;52.008;5.644;2022-08-19T06:49:29;23.80;99.90
45008;DHT22;30743;52.008;5.644;2022-08-19T06:51:57;23.80;99.90
45008;DHT22;30743;52.008;5.644;2022-08-19T06:54:24;23.70;99.90
45008;DHT22;30743;52.008;5.644;2022-08-19T06:56:49;23.80;99.90
45008;DHT22;30743;52.008;5.644;2022-08-19T06:59:19;23.80;99.90
45008;DHT22;30743;52.008;5.644;2022-08-19T07:01:53;24.00;99.90
45008;DHT22;30743;52.008;5.644;2022-08-19T07:04:21;24.00;99.90
45008;DHT22;30743;52.008;5.644;2022-08-19T07:06:47;24.00;99.90
45008;DHT22;30743;52.008;5.644;2022-08-19T07:09:15;24.10;99.90
45008;DHT22;30743;52.008;5.644;2022-08-19T07:11:51;24.10;99.90
45008;DHT22;30743;52.008;5.644;2022-08-19T07:14:21;23.90;99.90
45008;DHT22;30743;52.008;5.644;2022-08-19T07:16:49;23.60;99.90
45008;DHT22;30743;52.008;5.644;2022-08-19T07:19:16;23.90;99.90
45008;DHT22;30743;52.008;5.644;2022-08-19T07:21:42;24.10;99.90
45008;DHT22;30743;52.008;5.644;2022-08-19T07:24:08;24.30;99.90
45008;DHT22;30743;52.008;5.644;2022-08-19T07:26:39;24.30;99.90
45008;DHT22;30743;52.008;5.644;2022-08-19T07:29:05;24.50;99.90
45008;DHT22;30743;52.008;5.644;2022-08-19T07:31:31;24.60;99.90
45008;DHT22;30743;52.008;5.644;2022-08-19T07:34:01;24.60;99.90
45008;DHT22;30743;52.008;5.644;2022-08-19T07:36:28;24.50;99.90
45008;DHT22;30743;52.008;5.644;2022-08-19T07:38:56;24.40;99.90
45008;DHT22;30743;52.008;5.644;2022-08-19T07:41:25;24.10;99.90
45008;DHT22;30743;52.008;5.644;2022-08-19T07:43:51;24.10;99.90
45008;DHT22;30743;52.008;5.644;2022-08-19T07:46:17;24.00;99.90
45008;DHT22;30743;52.008;5.644;2022-08-19T07:48:46;24.30;99.90
45008;DHT22;30743;52.008;5.644;2022-08-19T07:51:13;24.00;99.90
45008;DHT22;30743;52.008;5.644;2022-08-19T07:53:39;24.10;99.90
45008;DHT22;30743;52.008;5.644;2022-08-19T07:56:05;24.40;99.90
45008;DHT22;30743;52.008;5.644;2022-08-19T07:58:34;24.70;99.90
45008;DHT22;30743;52.008;5.644;2022-08-19T08:01:02;24.70;99.90
45008;DHT22;30743;52.008;5.644;2022-08-19T08:03:28;25.10;99.90
45008;DHT22;30743;52.008;5.644;2022-08-19T08:06:14;25.30;99.90
45008;DHT22;30743;52.008;5.644;2022-08-19T08:08:58;25.60;99.90
45008;DHT22;30743;52.008;5.644;2022-08-19T08:11:40;26.00;99.90
45008;DHT22;30743;52.008;5.644;2022-08-19T08:14:06;26.30;99.90
45008;DHT22;30743;52.008;5.644;2022-08-19T08:16:38;26.60;99.90
45008;DHT22;30743;52.008;5.644;2022-08-19T08:19:04;26.90;99.90
45008;DHT22;30743;52.008;5.644;2022-08-19T08:21:31;27.10;99.90
45008;DHT22;30743;52.008;5.644;2022-08-19T08:23:57;27.40;99.90
45008;DHT22;30743;52.008;5.644;2022-08-19T08:26:23;27.60;99.90
45008;DHT22;30743;52.008;5.644;2022-08-19T08:28:50;27.90;99.90
45008;DHT22;30743;52.008;5.644;2022-08-19T08:31:16;28.00;99.90
45008;DHT22;30743;52.008;5.644;2022-08-19T08:33:44;28.20;99.90
45008;DHT22;30743;52.008;5.644;2022-08-19T08:36:10;28.40;99.90
45008;DHT22;30743;52.008;5.644;2022-08-19T08:38:36;28.60;99.90
45008;DHT22;30743;52.008;5.644;2022-08-19T08:41:18;28.70;99.90
45008;DHT22;30743;52.008;5.644;2022-08-19T08:43:47;28.90;99.90
45008;DHT22;30743;52.008;5.644;2022-08-19T08:48:57;29.40;99.90
45008;DHT22;30743;52.008;5.644;2022-08-19T08:51:51;29.60;99.90
45008;DHT22;30743;52.008;5.644;2022-08-19T08:54:20;29.90;99.90
45008;DHT22;30743;52.008;5.644;2022-08-19T08:56:49;30.10;99.90
45008;DHT22;30743;52.008;5.644;2022-08-19T08:59:31;30.40;99.90
45008;DHT22;30743;52.008;5.644;2022-08-19T09:01:59;30.60;99.90
45008;DHT22;30743;52.008;5.644;2022-08-19T09:04:25;30.90;99.50
45008;DHT22;30743;52.008;5.644;2022-08-19T09:07:14;31.10;99.00
45008;DHT22;30743;52.008;5.644;2022-08-19T09:09:48;31.30;98.00
45008;DHT22;30743;52.008;5.644;2022-08-19T09:12:24;31.50;97.50
45008;DHT22;30743;52.008;5.644;2022-08-19T09:15:00;31.70;96.80
45008;DHT22;30743;52.008;5.644;2022-08-19T09:17:29;31.80;95.90
45008;DHT22;30743;52.008;5.644;2022-08-19T09:22:40;32.00;95.20
45008;DHT22;30743;52.008;5.644;2022-08-19T09:25:08;32.10;94.70
45008;DHT22;30743;52.008;5.644;2022-08-19T09:27:36;32.10;94.70
45008;DHT22;30743;52.008;5.644;2022-08-19T09:30:04;32.20;95.00
45008;DHT22;30743;52.008;5.644;2022-08-19T09:32:30;32.20;95.20
45008;DHT22;30743;52.008;5.644;2022-08-19T09:34:56;32.30;94.80
45008;DHT22;30743;52.008;5.644;2022-08-19T09:37:23;32.40;94.50
45008;DHT22;30743;52.008;5.644;2022-08-19T09:39:50;32.50;93.90
45008;DHT22;30743;52.008;5.644;2022-08-19T09:42:15;32.70;94.20
45008;DHT22;30743;52.008;5.644;2022-08-19T09:44:42;32.80;93.20
45008;DHT22;30743;52.008;5.644;2022-08-19T09:47:09;33.00;93.00
45008;DHT22;30743;52.008;5.644;2022-08-19T09:49:36;33.10;92.20
45008;DHT22;30743;52.008;5.644;2022-08-19T09:52:03;33.30;92.30
45008;DHT22;30743;52.008;5.644;2022-08-19T09:54:28;33.40;91.50
45008;DHT22;30743;52.008;5.644;2022-08-19T09:56:55;33.50;91.60
45008;DHT22;30743;52.008;5.644;2022-08-19T09:59:21;33.80;92.00
45008;DHT22;30743;52.008;5.644;2022-08-19T10:01:46;34.00;91.80
45008;DHT22;30743;52.008;5.644;2022-08-19T10:04:12;34.10;91.30
45008;DHT22;30743;52.008;5.644;2022-08-19T10:06:39;34.20;90.40
45008;DHT22;30743;52.008;5.644;2022-08-19T10:09:07;34.40;90.50
45008;DHT22;30743;52.008;5.644;2022-08-19T10:11:34;34.60;90.40
45008;DHT22;30743;52.008;5.644;2022-08-19T10:14:00;34.60;90.10
45008;DHT22;30743;52.008;5.644;2022-08-19T10:16:26;34.80;90.10
45008;DHT22;30743;52.008;5.644;2022-08-19T10:18:52;34.90;89.40
45008;DHT22;30743;52.008;5.644;2022-08-19T10:21:27;35.00;88.50
45008;DHT22;30743;52.008;5.644;2022-08-19T10:23:55;35.20;86.40
45008;DHT22;30743;52.008;5.644;2022-08-19T10:26:26;35.20;87.10
45008;DHT22;30743;52.008;5.644;2022-08-19T10:28:52;35.30;86.70
45008;DHT22;30743;52.008;5.644;2022-08-19T10:31:21;35.30;85.70
45008;DHT22;30743;52.008;5.644;2022-08-19T10:33:47;35.40;85.20
45008;DHT22;30743;52.008;5.644;2022-08-19T10:36:18;35.40;85.00
45008;DHT22;30743;52.008;5.644;2022-08-19T10:38:46;35.40;84.70
45008;DHT22;30743;52.008;5.644;2022-08-19T10:41:20;35.40;84.00
45008;DHT22;30743;52.008;5.644;2022-08-19T10:43:50;35.40;84.30
45008;DHT22;30743;52.008;5.644;2022-08-19T10:46:18;35.60;83.70
45008;DHT22;30743;52.008;5.644;2022-08-19T10:48:44;35.60;83.90
45008;DHT22;30743;52.008;5.644;2022-08-19T10:51:11;35.70;84.00
45008;DHT22;30743;52.008;5.644;2022-08-19T10:53:55;35.80;83.80
45008;DHT22;30743;52.008;5.644;2022-08-19T10:56:22;35.80;83.00
45008;DHT22;30743;52.008;5.644;2022-08-19T10:59:06;35.90;83.40
45008;DHT22;30743;52.008;5.644;2022-08-19T11:01:33;35.90;82.50
45008;DHT22;30743;52.008;5.644;2022-08-19T11:04:02;36.10;83.30
45008;DHT22;30743;52.008;5.644;2022-08-19T11:06:28;36.10;82.10
45008;DHT22;30743;52.008;5.644;2022-08-19T11:08:55;36.00;82.20
45008;DHT22;30743;52.008;5.644;2022-08-19T11:11:21;36.00;81.10
45008;DHT22;30743;52.008;5.644;2022-08-19T11:13:48;36.00;81.60
45008;DHT22;30743;52.008;5.644;2022-08-19T11:16:19;36.00;81.70
45008;DHT22;30743;52.008;5.644;2022-08-19T11:18:53;36.10;82.10
45008;DHT22;30743;52.008;5.644;2022-08-19T11:21:25;36.10;82.30
45008;DHT22;30743;52.008;5.644;2022-08-19T11:23:53;36.10;80.80
45008;DHT22;30743;52.008;5.644;2022-08-19T11:26:19;36.10;80.70
45008;DHT22;30743;52.008;5.644;2022-08-19T11:28:46;36.30;79.80
45008;DHT22;30743;52.008;5.644;2022-08-19T11:31:20;36.40;80.30
45008;DHT22;30743;52.008;5.644;2022-08-19T11:33:46;36.60;79.70
45008;DHT22;30743;52.008;5.644;2022-08-19T11:36:12;36.70;79.90
45008;DHT22;30743;52.008;5.644;2022-08-19T11:38:38;36.80;80.80
45008;DHT22;30743;52.008;5.644;2022-08-19T11:41:07;36.90;80.10
45008;DHT22;30743;52.008;5.644;2022-08-19T11:43:37;37.00;79.10
45008;DHT22;30743;52.008;5.644;2022-08-19T11:46:06;37.10;79.20
45008;DHT22;30743;52.008;5.644;2022-08-19T11:48:33;37.10;78.70
45008;DHT22;30743;52.008;5.644;2022-08-19T11:50:58;37.10;80.40
45008;DHT22;30743;52.008;5.644;2022-08-19T11:53:24;37.10;79.00
45008;DHT22;30743;52.008;5.644;2022-08-19T11:55:53;37.20;80.80
45008;DHT22;30743;52.008;5.644;2022-08-19T11:58:21;37.00;78.60
45008;DHT22;30743;52.008;5.644;2022-08-19T12:00:47;37.00;80.30
45008;DHT22;30743;52.008;5.644;2022-08-19T12:03:13;37.00;80.40
45008;DHT22;30743;52.008;5.644;2022-08-19T12:05:40;37.10;79.50
45008;DHT22;30743;52.008;5.644;2022-08-19T12:08:07;37.00;79.00
45008;DHT22;30743;52.008;5.644;2022-08-19T12:10:34;37.00;80.80
45008;DHT22;30743;52.008;5.644;2022-08-19T12:12:59;37.20;79.40
45008;DHT22;30743;52.008;5.644;2022-08-19T12:15:26;37.20;78.20
45008;DHT22;30743;52.008;5.644;2022-08-19T12:17:54;37.30;78.50
45008;DHT22;30743;52.008;5.644;2022-08-19T12:20:23;37.40;78.10
45008;DHT22;30743;52.008;5.644;2022-08-19T12:22:49;37.50;78.20
45008;DHT22;30743;52.008;5.644;2022-08-19T12:25:15;37.60;79.70
45008;DHT22;30743;52.008;5.644;2022-08-19T12:27:41;37.80;77.70
45008;DHT22;30743;52.008;5.644;2022-08-19T12:30:09;38.00;77.90
45008;DHT22;30743;52.008;5.644;2022-08-19T12:32:35;38.10;76.00
45008;DHT22;30743;52.008;5.644;2022-08-19T12:35:01;38.10;77.30
45008;DHT22;30743;52.008;5.644;2022-08-19T12:37:27;38.20;76.10
45008;DHT22;30743;52.008;5.644;2022-08-19T12:39:52;38.30;76.60
45008;DHT22;30743;52.008;5.644;2022-08-19T12:42:18;38.30;75.80
45008;DHT22;30743;52.008;5.644;2022-08-19T12:44:43;38.50;76.30
45008;DHT22;30743;52.008;5.644;2022-08-19T12:47:11;38.50;76.30
45008;DHT22;30743;52.008;5.644;2022-08-19T12:49:37;38.60;76.30
45008;DHT22;30743;52.008;5.644;2022-08-19T12:52:07;38.70;75.80
45008;DHT22;30743;52.008;5.644;2022-08-19T12:54:34;38.70;75.60
45008;DHT22;30743;52.008;5.644;2022-08-19T12:57:00;38.80;74.80
45008;DHT22;30743;52.008;5.644;2022-08-19T12:59:29;38.90;75.70
45008;DHT22;30743;52.008;5.644;2022-08-19T13:01:55;39.00;74.20
45008;DHT22;30743;52.008;5.644;2022-08-19T13:04:20;39.00;73.70
45008;DHT22;30743;52.008;5.644;2022-08-19T13:06:46;39.00;74.20
45008;DHT22;30743;52.008;5.644;2022-08-19T13:09:11;39.10;73.90
45008;DHT22;30743;52.008;5.644;2022-08-19T13:11:37;39.00;73.60
45008;DHT22;30743;52.008;5.644;2022-08-19T13:14:03;38.90;73.60
45008;DHT22;30743;52.008;5.644;2022-08-19T13:16:30;38.90;73.70
45008;DHT22;30743;52.008;5.644;2022-08-19T13:18:57;38.80;73.90
45008;DHT22;30743;52.008;5.644;2022-08-19T13:21:26;38.70;73.70
45008;DHT22;30743;52.008;5.644;2022-08-19T13:23:53;38.60;74.50
45008;DHT22;30743;52.008;5.644;2022-08-19T13:26:19;38.40;74.40
45008;DHT22;30743;52.008;5.644;2022-08-19T13:28:45;38.20;74.30
45008;DHT22;30743;52.008;5.644;2022-08-19T13:31:32;37.90;74.80
45008;DHT22;30743;52.008;5.644;2022-08-19T13:34:18;36.70;76.00
45008;DHT22;30743;52.008;5.644;2022-08-19T13:36:44;35.50;79.70
45008;DHT22;30743;52.008;5.644;2022-08-19T13:39:10;34.90;81.20
45008;DHT22;30743;52.008;5.644;2022-08-19T13:41:36;34.20;84.60
45008;DHT22;30743;52.008;5.644;2022-08-19T13:44:03;33.80;86.00
45008;DHT22;30743;52.008;5.644;2022-08-19T13:46:29;33.00;86.00
45008;DHT22;30743;52.008;5.644;2022-08-19T13:48:56;32.70;88.30
45008;DHT22;30743;52.008;5.644;2022-08-19T13:51:23;32.30;90.00
45008;DHT22;30743;52.008;5.644;2022-08-19T13:53:48;32.00;90.60
45008;DHT22;30743;52.008;5.644;2022-08-19T13:56:18;32.70;91.70
45008;DHT22;30743;52.008;5.644;2022-08-19T13:58:45;31.50;91.80
45008;DHT22;30743;52.008;5.644;2022-08-19T14:01:11;31.40;92.10
45008;DHT22;30743;52.008;5.644;2022-08-19T14:03:37;31.20;92.20
45008;DHT22;30743;52.008;5.644;2022-08-19T14:06:03;31.10;93.70
45008;DHT22;30743;52.008;5.644;2022-08-19T14:08:28;30.80;94.00
45008;DHT22;30743;52.008;5.644;2022-08-19T14:10:55;30.30;93.40
45008;DHT22;30743;52.008;5.644;2022-08-19T14:13:22;31.20;94.60
45008;DHT22;30743;52.008;5.644;2022-08-19T14:15:49;29.80;94.40
45008;DHT22;30743;52.008;5.644;2022-08-19T14:18:16;29.80;95.10
45008;DHT22;30743;52.008;5.644;2022-08-19T14:20:42;29.90;96.00
45008;DHT22;30743;52.008;5.644;2022-08-19T14:23:07;29.80;96.00
45008;DHT22;30743;52.008;5.644;2022-08-19T14:25:33;29.80;95.40
45008;DHT22;30743;52.008;5.644;2022-08-19T14:27:59;29.70;95.70
45008;DHT22;30743;52.008;5.644;2022-08-19T14:30:30;29.80;96.30
45008;DHT22;30743;52.008;5.644;2022-08-19T14:32:57;29.70;96.20
45008;DHT22;30743;52.008;5.644;2022-08-19T14:35:24;29.40;98.10
45008;DHT22;30743;52.008;5.644;2022-08-19T14:37:50;29.40;98.40
45008;DHT22;30743;52.008;5.644;2022-08-19T14:40:19;29.00;99.60
45008;DHT22;30743;52.008;5.644;2022-08-19T14:42:46;29.10;99.90
45008;DHT22;30743;52.008;5.644;2022-08-19T14:45:13;28.80;99.90
45008;DHT22;30743;52.008;5.644;2022-08-19T14:47:39;28.70;99.90
45008;DHT22;30743;52.008;5.644;2022-08-19T14:50:09;28.80;99.90
45008;DHT22;30743;52.008;5.644;2022-08-19T14:52:35;28.80;99.90
45008;DHT22;30743;52.008;5.644;2022-08-19T14:55:01;28.80;99.90
45008;DHT22;30743;52.008;5.644;2022-08-19T14:57:27;28.90;99.90
45008;DHT22;30743;52.008;5.644;2022-08-19T14:59:52;29.00;99.90
45008;DHT22;30743;52.008;5.644;2022-08-19T15:02:18;29.10;99.90
45008;DHT22;30743;52.008;5.644;2022-08-19T15:04:45;29.30;99.90
45008;DHT22;30743;52.008;5.644;2022-08-19T15:07:11;29.30;99.90
45008;DHT22;30743;52.008;5.644;2022-08-19T15:09:37;29.40;99.90
45008;DHT22;30743;52.008;5.644;2022-08-19T15:12:02;29.50;99.90
45008;DHT22;30743;52.008;5.644;2022-08-19T15:14:30;29.30;99.90
45008;DHT22;30743;52.008;5.644;2022-08-19T15:17:01;29.40;99.90
45008;DHT22;30743;52.008;5.644;2022-08-19T15:19:28;29.40;99.90
45008;DHT22;30743;52.008;5.644;2022-08-19T15:21:54;29.40;99.90
45008;DHT22;30743;52.008;5.644;2022-08-19T15:24:20;29.50;99.90
45008;DHT22;30743;52.008;5.644;2022-08-19T15:26:46;29.10;99.90
45008;DHT22;30743;52.008;5.644;2022-08-19T15:29:11;29.10;99.90
45008;DHT22;30743;52.008;5.644;2022-08-19T15:31:39;29.30;99.90
45008;DHT22;30743;52.008;5.644;2022-08-19T15:34:05;29.20;99.90
45008;DHT22;30743;52.008;5.644;2022-08-19T15:36:31;29.30;99.90
45008;DHT22;30743;52.008;5.644;2022-08-19T15:38:57;29.00;99.90